createdAt,value
2022-11-09T00:00:05.993Z,1.98
2022-11-09T00:02:32.754Z,2.10
2022-11-09T00:04:59.249Z,2.05
2022-11-09T00:07:25.865Z,2.10
2022-11-09T00:09:52.397Z,1.92
2022-11-09T00:12:18.946Z,2.05
2022-11-09T00:14:45.592Z,1.83
2022-11-09T00:17:12.167Z,2.20
2022-11-09T00:19:38.626Z,1.67
2022-11-09T00:22:05.096Z,1.63
2022-11-09T00:24:31.588Z,1.67
2022-11-09T00:26:58.063Z,1.52
2022-11-09T00:29:24.675Z,1.60
2022-11-09T00:31:51.223Z,1.65
2022-11-09T00:34:17.745Z,1.15
2022-11-09T00:36:44.219Z,1.75
2022-11-09T00:39:10.681Z,1.40
2022-11-09T00:41:37.172Z,1.50
2022-11-09T00:44:03.692Z,1.73
2022-11-09T00:46:30.582Z,1.40
2022-11-09T00:48:57.153Z,1.67
2022-11-09T00:51:24.029Z,1.52
2022-11-09T00:53:54.366Z,1.60
2022-11-09T00:56:21.511Z,1.50
2022-11-09T00:58:48.043Z,1.52
2022-11-09T01:01:17.797Z,1.95
2022-11-09T01:03:45.445Z,1.70
2022-11-09T01:06:20.301Z,1.90
2022-11-09T01:08:47.357Z,2.05
2022-11-09T01:11:14.138Z,2.20
2022-11-09T01:13:40.964Z,2.10
2022-11-09T01:16:10.032Z,2.40
2022-11-09T01:18:36.803Z,2.08
2022-11-09T01:21:05.650Z,2.40
2022-11-09T01:23:32.508Z,2.10
2022-11-09T01:26:04.583Z,2.35
2022-11-09T01:28:31.847Z,2.10
2022-11-09T01:31:11.228Z,2.42
2022-11-09T01:33:38.060Z,2.40
2022-11-09T01:36:06.747Z,2.30
2022-11-09T01:38:33.719Z,2.70
2022-11-09T01:41:00.267Z,2.30
2022-11-09T01:43:26.877Z,2.60
2022-11-09T01:46:21.400Z,2.65
2022-11-09T01:48:58.778Z,2.20
2022-11-09T01:51:33.458Z,2.50
2022-11-09T01:54:11.378Z,2.60
2022-11-09T01:56:38.068Z,2.10
2022-11-09T01:59:09.839Z,2.30
2022-11-09T02:01:36.675Z,2.20
2022-11-09T02:04:16.176Z,2.22
2022-11-09T02:06:42.923Z,2.33
2022-11-09T02:09:31.887Z,2.25
2022-11-09T02:11:58.959Z,2.28
2022-11-09T02:14:32.529Z,2.20
2022-11-09T02:16:59.338Z,1.90
2022-11-09T02:19:25.816Z,1.88
2022-11-09T02:21:52.546Z,2.10
2022-11-09T02:24:19.435Z,2.28
2022-11-09T02:26:49.128Z,2.17
2022-11-09T02:29:25.469Z,2.55
2022-11-09T02:31:55.780Z,2.42
2022-11-09T02:34:24.123Z,2.33
2022-11-09T02:36:50.705Z,2.40
2022-11-09T02:39:19.657Z,2.53
2022-11-09T02:42:10.688Z,2.60
2022-11-09T02:44:48.574Z,2.55
2022-11-09T02:47:15.476Z,2.60
2022-11-09T02:49:42.382Z,2.75
2022-11-09T02:52:08.949Z,2.97
2022-11-09T02:54:35.688Z,2.90
2022-11-09T02:57:02.216Z,3.20
2022-11-09T02:59:28.743Z,2.83
2022-11-09T03:01:55.319Z,2.80
2022-11-09T03:04:21.824Z,2.85
2022-11-09T03:06:48.459Z,3.10
2022-11-09T03:09:15.012Z,3.53
2022-11-09T03:11:42.411Z,3.30
2022-11-09T03:14:11.707Z,3.38
2022-11-09T03:16:39.405Z,3.20
2022-11-09T03:19:06.494Z,3.40
2022-11-09T03:21:32.954Z,3.30
2022-11-09T03:23:59.633Z,3.45
2022-11-09T03:26:26.205Z,3.28
2022-11-09T03:28:52.722Z,2.85
2022-11-09T03:31:19.268Z,3.10
2022-11-09T03:33:45.746Z,3.22
2022-11-09T03:36:12.286Z,2.97
2022-11-09T03:38:38.886Z,3.40
2022-11-09T03:41:05.508Z,2.85
2022-11-09T03:43:32.038Z,3.15
2022-11-09T03:45:58.772Z,3.15
2022-11-09T03:48:25.332Z,3.30
2022-11-09T03:50:51.955Z,3.03
2022-11-09T03:53:19.038Z,3.33
2022-11-09T03:55:45.835Z,3.65
2022-11-09T03:58:15.605Z,3.45
2022-11-09T04:00:42.169Z,3.05
2022-11-09T04:03:08.709Z,3.13
2022-11-09T04:05:35.194Z,3.33
2022-11-09T04:08:01.781Z,3.30
2022-11-09T04:10:28.326Z,3.75
2022-11-09T04:12:57.000Z,4.28
2022-11-09T04:15:23.649Z,3.55
2022-11-09T04:18:00.643Z,3.85
2022-11-09T04:20:29.021Z,3.50
2022-11-09T04:22:57.553Z,3.38
2022-11-09T04:25:25.980Z,3.38
2022-11-09T04:27:59.327Z,3.13
2022-11-09T04:30:28.107Z,2.95
2022-11-09T04:32:55.845Z,2.83
2022-11-09T04:35:23.101Z,3.38
2022-11-09T04:38:13.608Z,3.05
2022-11-09T04:40:40.506Z,2.97
2022-11-09T04:43:11.961Z,2.85
2022-11-09T04:45:40.062Z,3.05
2022-11-09T04:48:11.076Z,3.22
2022-11-09T04:50:37.824Z,2.72
2022-11-09T04:53:19.119Z,2.92
2022-11-09T04:55:45.786Z,2.90
2022-11-09T04:58:12.309Z,2.83
2022-11-09T05:00:39.011Z,2.70
2022-11-09T05:03:06.713Z,2.72
2022-11-09T05:05:37.681Z,2.55
2022-11-09T05:08:05.383Z,2.85
2022-11-09T05:10:38.045Z,3.10
2022-11-09T05:13:09.775Z,3.42
2022-11-09T05:15:36.681Z,2.88
2022-11-09T05:18:04.129Z,2.67
2022-11-09T05:20:31.038Z,2.70
2022-11-09T05:23:17.441Z,2.72
2022-11-09T05:25:50.026Z,2.05
2022-11-09T05:28:16.604Z,2.55
2022-11-09T05:30:43.152Z,2.55
2022-11-09T05:33:09.687Z,3.80
2022-11-09T05:35:36.160Z,3.28
2022-11-09T05:38:02.685Z,3.35
2022-11-09T05:40:29.244Z,3.03
2022-11-09T05:42:56.685Z,3.00
2022-11-09T05:45:44.151Z,2.95
2022-11-09T05:48:12.313Z,2.78
2022-11-09T05:50:39.920Z,2.58
2022-11-09T05:53:06.551Z,2.63
2022-11-09T05:55:36.517Z,2.88
2022-11-09T05:58:03.003Z,2.70
2022-11-09T06:00:29.451Z,2.67
2022-11-09T06:03:04.209Z,2.42
2022-11-09T06:05:34.278Z,2.50
2022-11-09T06:08:08.496Z,2.38
2022-11-09T06:10:42.425Z,2.30
2022-11-09T06:13:12.055Z,2.45
2022-11-09T06:15:38.648Z,2.80
2022-11-09T06:18:05.198Z,3.53
2022-11-09T06:20:33.210Z,2.20
2022-11-09T06:23:03.533Z,2.25
2022-11-09T06:25:31.863Z,2.13
2022-11-09T06:27:58.639Z,2.42
2022-11-09T06:30:25.279Z,2.60
2022-11-09T06:32:51.810Z,2.60
2022-11-09T06:35:21.528Z,2.75
2022-11-09T06:37:48.247Z,2.60
2022-11-09T06:40:14.845Z,2.65
2022-11-09T06:42:46.871Z,2.42
2022-11-09T06:45:13.527Z,2.30
2022-11-09T06:47:40.109Z,2.50
2022-11-09T06:50:08.763Z,2.42
2022-11-09T06:52:35.467Z,2.30
2022-11-09T06:55:02.027Z,2.60
2022-11-09T06:57:31.656Z,2.78
2022-11-09T07:00:01.476Z,2.20
2022-11-09T07:02:29.632Z,2.45
2022-11-09T07:04:58.892Z,2.45
2022-11-09T07:07:28.208Z,2.75
2022-11-09T07:09:55.843Z,2.72
2022-11-09T07:12:23.337Z,2.70
2022-11-09T07:14:49.959Z,2.70
2022-11-09T07:17:16.513Z,2.70
2022-11-09T07:19:43.104Z,2.67
2022-11-09T07:22:09.663Z,3.00
2022-11-09T07:24:36.185Z,2.83
2022-11-09T07:27:02.746Z,3.35
2022-11-09T07:29:29.269Z,3.53
2022-11-09T07:31:55.822Z,3.22
2022-11-09T07:34:22.440Z,3.25
2022-11-09T07:36:49.135Z,3.47
2022-11-09T07:39:15.695Z,3.15
2022-11-09T07:41:42.330Z,3.30
2022-11-09T07:44:08.981Z,4.00
2022-11-09T07:46:35.721Z,3.10
2022-11-09T07:49:02.392Z,3.80
2022-11-09T07:51:28.856Z,3.47
2022-11-09T07:53:55.424Z,4.22
2022-11-09T07:56:22.042Z,3.78
2022-11-09T07:58:51.122Z,3.28
2022-11-09T08:01:17.757Z,3.08
2022-11-09T08:03:44.453Z,3.47
2022-11-09T08:10:09.728Z,3.95
2022-11-09T08:13:02.010Z,8.63
2022-11-09T08:15:34.530Z,3.92
2022-11-09T08:21:30.428Z,3.75
2022-11-09T08:23:57.040Z,4.63
2022-11-09T08:26:23.639Z,4.13
2022-11-09T08:28:50.437Z,4.50
2022-11-09T08:31:16.899Z,3.17
2022-11-09T08:33:43.416Z,4.28
2022-11-09T08:36:12.072Z,3.63
2022-11-09T08:38:39.093Z,2.90
2022-11-09T08:41:27.206Z,2.63
2022-11-09T08:44:02.556Z,2.92
2022-11-09T08:46:29.204Z,2.55
2022-11-09T08:48:55.719Z,3.60
2022-11-09T08:51:22.189Z,2.28
2022-11-09T08:53:48.730Z,2.33
2022-11-09T08:56:18.398Z,2.67
2022-11-09T08:58:45.522Z,2.50
2022-11-09T09:01:16.667Z,2.70
2022-11-09T09:03:43.920Z,2.58
2022-11-09T09:06:13.654Z,2.70
2022-11-09T09:08:42.884Z,2.63
2022-11-09T09:11:09.516Z,2.60
2022-11-09T09:13:40.533Z,2.78
2022-11-09T09:16:11.849Z,2.72
2022-11-09T09:18:38.413Z,3.88
2022-11-09T09:21:09.906Z,2.72
2022-11-09T09:23:36.804Z,2.10
2022-11-09T09:26:06.555Z,2.33
2022-11-09T09:28:33.325Z,2.55
2022-11-09T09:31:01.693Z,2.65
2022-11-09T09:33:28.930Z,2.30
2022-11-09T09:35:57.687Z,2.13
2022-11-09T09:38:25.104Z,1.90
2022-11-09T09:41:02.662Z,2.13
2022-11-09T09:43:41.535Z,2.33
2022-11-09T09:46:22.920Z,1.98
2022-11-09T09:48:59.988Z,1.92
2022-11-09T09:51:44.133Z,1.90
2022-11-09T09:54:15.484Z,2.05
2022-11-09T09:56:44.640Z,1.90
2022-11-09T09:59:33.200Z,2.10
2022-11-09T10:01:59.887Z,1.50
2022-11-09T10:04:36.768Z,1.60
2022-11-09T10:07:03.865Z,1.58
2022-11-09T10:09:39.332Z,1.40
2022-11-09T10:12:24.143Z,1.60
2022-11-09T10:15:12.934Z,1.58
2022-11-09T10:17:45.591Z,1.65
2022-11-09T10:20:52.852Z,1.30
2022-11-09T10:23:34.761Z,1.70
2022-11-09T10:26:16.473Z,1.52
2022-11-09T10:29:20.508Z,1.65
2022-11-09T10:31:48.856Z,1.60
2022-11-09T10:38:33.183Z,1.60
2022-11-09T10:41:40.532Z,2.00
2022-11-09T10:44:17.290Z,1.85
2022-11-09T10:47:03.226Z,1.95
2022-11-09T10:49:29.850Z,1.50
2022-11-09T10:51:56.507Z,1.65
2022-11-09T10:54:28.507Z,1.30
2022-11-09T10:57:22.133Z,1.60
2022-11-09T10:59:54.597Z,1.42
2022-11-09T11:02:27.256Z,1.73
2022-11-09T11:04:59.712Z,1.70
2022-11-09T11:07:26.532Z,2.03
2022-11-09T11:09:53.190Z,2.50
2022-11-09T11:12:22.988Z,2.42
2022-11-09T11:14:53.488Z,2.05
2022-11-09T11:17:41.012Z,4.13
2022-11-09T11:20:30.753Z,3.22
2022-11-09T11:23:13.076Z,3.83
2022-11-09T11:25:58.614Z,5.07
2022-11-09T11:28:45.134Z,3.17
2022-11-09T13:29:56.647Z,1.88
2022-11-09T13:32:26.487Z,1.90
2022-11-09T13:34:55.094Z,2.15
2022-11-09T13:37:37.702Z,2.28
2022-11-09T13:40:42.033Z,1.85
2022-11-09T13:43:08.518Z,1.95
2022-11-09T13:48:47.044Z,3.60
2022-11-09T13:51:41.356Z,2.60
2022-11-09T13:54:36.744Z,2.80
2022-11-09T13:57:06.488Z,2.30
2022-11-09T13:59:39.171Z,2.10
2022-11-09T14:02:35.028Z,2.80
2022-11-09T14:05:02.037Z,2.65
2022-11-09T14:07:35.357Z,1.90
2022-11-09T14:10:20.128Z,2.10
2022-11-09T14:13:19.963Z,3.17
2022-11-09T14:15:46.393Z,2.40
2022-11-09T14:18:35.737Z,3.10
2022-11-09T14:21:17.830Z,2.53
2022-11-09T14:23:44.349Z,2.80
2022-11-09T14:26:22.829Z,2.80
2022-11-09T14:28:49.246Z,3.35
2022-11-09T14:31:23.535Z,3.03
2022-11-09T14:34:05.845Z,2.70
2022-11-09T14:36:35.076Z,2.72
2022-11-09T14:39:05.285Z,2.50
2022-11-09T14:41:37.508Z,3.00
2022-11-09T14:52:04.260Z,2.25
2022-11-09T14:54:30.949Z,3.92
2022-11-09T14:56:57.607Z,2.40
2022-11-09T15:07:03.845Z,4.40
2022-11-09T15:09:56.009Z,3.45
2022-11-09T15:12:48.080Z,5.30
2022-11-09T15:15:21.259Z,2.97
2022-11-09T15:17:54.142Z,3.05
2022-11-09T15:44:37.645Z,3.40
2022-11-09T15:47:05.220Z,3.10
2022-11-09T15:49:32.395Z,3.03
2022-11-09T15:51:58.936Z,3.30
2022-11-09T15:54:25.577Z,3.20
2022-11-09T15:56:52.076Z,3.15
2022-11-09T15:59:25.071Z,3.08
2022-11-09T16:01:51.637Z,2.67
2022-11-09T16:04:18.753Z,3.28
2022-11-09T16:06:46.800Z,2.85
2022-11-09T16:09:13.958Z,3.35
2022-11-09T16:11:40.454Z,4.45
2022-11-09T16:14:07.208Z,4.82
2022-11-09T16:16:33.834Z,4.15
2022-11-09T16:19:00.648Z,3.55
2022-11-09T16:21:27.256Z,4.07
2022-11-09T16:24:09.726Z,5.55
2022-11-09T16:26:36.722Z,6.07
2022-11-09T16:29:03.445Z,5.10
2022-11-09T16:31:50.156Z,3.03
2022-11-09T16:34:16.568Z,3.30
2022-11-09T16:36:50.812Z,3.50
2022-11-09T16:39:26.232Z,3.15
2022-11-09T16:42:04.888Z,3.55
2022-11-09T16:44:37.179Z,3.25
2022-11-09T16:47:06.612Z,4.13
2022-11-09T16:49:33.639Z,4.15
2022-11-09T16:52:02.128Z,4.93
2022-11-09T16:54:29.382Z,3.53
2022-11-09T16:56:58.545Z,4.55
2022-11-09T16:59:25.119Z,4.13
2022-11-09T17:01:53.680Z,4.50
2022-11-09T17:04:21.000Z,3.80
2022-11-09T17:06:47.882Z,3.75
2022-11-09T17:09:15.183Z,3.72
2022-11-09T17:11:41.915Z,3.45
2022-11-09T17:14:08.596Z,2.75
2022-11-09T17:16:35.592Z,3.17
2022-11-09T17:19:02.150Z,2.95
2022-11-09T17:21:29.933Z,2.92
2022-11-09T17:23:59.966Z,2.90
2022-11-09T17:27:00.600Z,2.92
2022-11-09T17:29:27.500Z,2.90
2022-11-09T17:31:57.001Z,3.70
2022-11-09T17:34:23.555Z,5.35
2022-11-09T17:37:03.580Z,3.92
2022-11-09T17:39:31.547Z,2.90
2022-11-09T17:41:58.118Z,2.90
2022-11-09T17:44:24.590Z,3.25
2022-11-09T17:46:51.405Z,3.55
2022-11-09T17:49:17.968Z,3.50
2022-11-09T17:51:44.527Z,3.55
2022-11-09T17:54:11.190Z,3.45
2022-11-09T17:56:37.716Z,3.47
2022-11-09T17:59:05.418Z,4.60
2022-11-09T18:01:35.251Z,5.43
2022-11-09T18:04:08.731Z,5.47
2022-11-09T18:06:35.529Z,5.43
2022-11-09T18:11:48.975Z,4.80
2022-11-09T18:14:18.491Z,4.60
2022-11-09T18:16:45.324Z,5.28
2022-11-09T18:19:11.960Z,4.88
2022-11-09T18:21:38.467Z,4.50
2022-11-09T18:24:05.321Z,4.45
2022-11-09T18:26:32.784Z,5.13
2022-11-09T18:28:59.295Z,6.18
2022-11-09T18:31:28.831Z,6.63
2022-11-09T18:33:55.396Z,5.93
2022-11-09T18:36:22.283Z,6.32
2022-11-09T18:38:51.894Z,6.43
2022-11-09T18:41:22.020Z,5.47
2022-11-09T18:43:49.643Z,4.80
2022-11-09T18:46:18.189Z,7.68
2022-11-09T18:48:45.371Z,6.07
2022-11-09T18:51:12.381Z,5.53
2022-11-09T18:53:41.016Z,6.78
2022-11-09T18:56:10.935Z,6.03
2022-11-09T18:58:37.688Z,6.82
2022-11-09T19:01:06.744Z,5.00
2022-11-09T19:03:33.702Z,6.57
2022-11-09T19:06:05.413Z,12.32
2022-11-09T19:08:50.309Z,10.00
2022-11-09T19:11:16.995Z,17.60
2022-11-09T19:13:43.550Z,11.80
2022-11-09T19:16:11.716Z,8.02
2022-11-09T19:18:38.456Z,6.28
2022-11-09T19:21:06.401Z,5.07
2022-11-09T19:23:34.826Z,3.00
2022-11-09T19:26:02.089Z,4.10
2022-11-09T19:28:28.721Z,4.88
2022-11-09T19:30:55.357Z,5.45
2022-11-09T19:33:21.880Z,6.95
2022-11-09T19:36:23.245Z,5.32
2022-11-09T19:38:39.303Z,4.95
2022-11-09T19:41:06.135Z,5.00
2022-11-09T19:43:34.518Z,5.90
2022-11-09T19:46:04.323Z,4.80
2022-11-09T19:53:39.516Z,4.75
2022-11-09T19:56:08.886Z,4.70
2022-11-09T19:58:38.811Z,4.00
2022-11-09T20:01:08.015Z,4.10
2022-11-09T20:03:35.429Z,4.20
2022-11-09T20:06:02.673Z,3.95
2022-11-09T20:08:29.322Z,4.07
2022-11-09T20:10:55.854Z,4.55
2022-11-09T20:13:22.930Z,5.20
2022-11-09T20:15:49.479Z,4.65
2022-11-09T20:18:16.071Z,5.50
2022-11-09T20:20:42.661Z,6.45
2022-11-09T20:23:09.376Z,5.95
2022-11-09T20:25:35.966Z,5.50
2022-11-09T20:28:02.765Z,5.05
2022-11-09T20:30:29.362Z,5.95
2022-11-09T20:32:56.284Z,6.82
2022-11-09T20:35:23.016Z,5.90
2022-11-09T20:37:49.677Z,12.88
2022-11-09T20:40:19.844Z,12.18
2022-11-09T20:42:46.479Z,11.40
2022-11-09T20:45:13.984Z,8.77
2022-11-09T20:48:05.050Z,19.45
2022-11-09T20:50:27.138Z,15.35
2022-11-09T20:52:53.800Z,13.27
2022-11-09T20:55:20.527Z,12.90
2022-11-09T20:57:47.155Z,9.25
2022-11-09T21:00:14.179Z,7.97
2022-11-09T21:02:41.790Z,6.63
2022-11-09T21:05:08.659Z,6.55
2022-11-09T21:07:35.258Z,10.63
2022-11-09T21:10:01.800Z,8.45
2022-11-09T21:12:29.632Z,8.93
2022-11-09T21:14:56.198Z,8.23
2022-11-09T21:17:22.833Z,9.57
2022-11-09T21:19:49.598Z,8.15
2022-11-09T21:22:16.156Z,7.93
2022-11-09T21:25:01.314Z,8.20
2022-11-09T21:27:48.181Z,7.78
2022-11-09T21:30:15.174Z,7.70
2022-11-09T21:32:41.673Z,6.05
2022-11-09T21:35:08.802Z,7.38
2022-11-09T21:37:35.462Z,7.05
2022-11-09T21:40:01.983Z,7.25
2022-11-09T21:42:28.524Z,7.97
2022-11-09T21:44:55.105Z,7.72
2022-11-09T21:47:23.254Z,7.70
2022-11-09T21:49:49.827Z,6.95
2022-11-09T21:52:16.482Z,6.22
2022-11-09T21:54:43.096Z,6.18
2022-11-09T21:57:12.345Z,5.68
2022-11-09T21:59:38.967Z,5.97
2022-11-09T22:02:05.775Z,4.72
2022-11-09T22:04:32.394Z,5.38
2022-11-09T22:06:59.276Z,5.03
2022-11-09T22:09:25.917Z,4.78
2022-11-09T22:12:10.988Z,4.93
2022-11-09T22:14:56.392Z,4.25
2022-11-09T22:17:23.019Z,5.00
2022-11-09T22:20:08.243Z,4.40
2022-11-09T22:22:36.341Z,4.93
2022-11-09T22:25:03.313Z,4.35
2022-11-09T22:27:31.382Z,5.43
2022-11-09T22:29:58.001Z,5.10
2022-11-09T22:32:24.612Z,4.88
2022-11-09T22:34:51.182Z,5.47
2022-11-09T22:37:17.887Z,4.70
2022-11-09T22:39:47.223Z,5.00
2022-11-09T22:42:17.256Z,4.68
2022-11-09T22:44:43.926Z,5.22
2022-11-09T22:47:10.500Z,5.40
2022-11-09T22:49:37.125Z,5.68
2022-11-09T22:52:04.582Z,6.47
2022-11-09T22:54:31.378Z,6.45
2022-11-09T22:56:57.929Z,6.35
2022-11-09T22:59:24.783Z,6.55
2022-11-09T23:01:51.349Z,6.15
2022-11-09T23:04:17.948Z,6.25
2022-11-09T23:06:44.541Z,6.53
2022-11-09T23:09:11.230Z,6.05
2022-11-09T23:11:37.988Z,6.60
2022-11-09T23:14:04.706Z,6.25
2022-11-09T23:16:31.186Z,7.15
2022-11-09T23:18:57.771Z,7.57
2022-11-09T23:21:36.138Z,7.35
2022-11-09T23:24:07.280Z,7.97
2022-11-09T23:26:34.241Z,8.93
2022-11-09T23:29:01.120Z,8.63
2022-11-09T23:31:27.811Z,10.52
2022-11-09T23:33:57.154Z,9.98
2022-11-09T23:36:25.334Z,9.63
2022-11-09T23:38:52.287Z,9.18
2022-11-09T23:41:19.373Z,8.48
2022-11-09T23:43:49.193Z,7.57
2022-11-09T23:46:16.856Z,8.70
2022-11-09T23:48:43.438Z,9.20
2022-11-09T23:51:10.710Z,8.63
2022-11-09T23:53:37.686Z,9.07
2022-11-09T23:56:09.299Z,8.75
2022-11-09T23:58:36.576Z,8.20
